sensor_id;sensor_type;location;lat;lon;timestamp;pressure;altitude;pressure_sealevel;temperature;humidity
42591;BME280;28218;53.342;-6.216;2023-02-11T00:01:21;103393.00;;;10.05;100.00
42591;BME280;28218;53.342;-6.216;2023-02-11T00:03:50;103389.41;;;10.06;100.00
42591;BME280;28218;53.342;-6.216;2023-02-11T00:06:19;103388.44;;;10.07;100.00
42591;BME280;28218;53.342;-6.216;2023-02-11T00:08:48;103382.34;;;10.06;100.00
42591;BME280;28218;53.342;-6.216;2023-02-11T00:11:19;103387.53;;;10.08;100.00
42591;BME280;28218;53.342;-6.216;2023-02-11T00:13:47;103389.22;;;10.09;100.00
42591;BME280;28218;53.342;-6.216;2023-02-11T00:16:20;103377.53;;;10.13;100.00
42591;BME280;28218;53.342;-6.216;2023-02-11T00:18:48;103375.09;;;10.10;100.00
42591;BME280;28218;53.342;-6.216;2023-02-11T00:21:22;103378.69;;;10.09;100.00
42591;BME280;28218;53.342;-6.216;2023-02-11T00:23:51;103372.47;;;10.10;100.00
42591;BME280;28218;53.342;-6.216;2023-02-11T00:26:22;103365.41;;;10.10;100.00
42591;BME280;28218;53.342;-6.216;2023-02-11T00:28:51;103366.34;;;10.09;100.00
42591;BME280;28218;53.342;-6.216;2023-02-11T00:31:21;103354.13;;;10.08;100.00
42591;BME280;28218;53.342;-6.216;2023-02-11T00:33:50;103349.69;;;10.09;100.00
42591;BME280;28218;53.342;-6.216;2023-02-11T00:36:21;103354.13;;;10.08;100.00
42591;BME280;28218;53.342;-6.216;2023-02-11T00:38:51;103360.22;;;10.09;100.00
42591;BME280;28218;53.342;-6.216;2023-02-11T00:41:20;103353.28;;;10.08;100.00
42591;BME280;28218;53.342;-6.216;2023-02-11T00:43:49;103358.56;;;10.08;100.00
42591;BME280;28218;53.342;-6.216;2023-02-11T00:46:17;103363.81;;;10.08;100.00
42591;BME280;28218;53.342;-6.216;2023-02-11T00:48:46;103366.34;;;10.09;100.00
42591;BME280;28218;53.342;-6.216;2023-02-11T00:51:14;103369.81;;;10.10;100.00
42591;BME280;28218;53.342;-6.216;2023-02-11T00:53:44;103368.97;;;10.09;100.00
42591;BME280;28218;53.342;-6.216;2023-02-11T00:56:13;103370.78;;;10.09;100.00
42591;BME280;28218;53.342;-6.216;2023-02-11T00:58:41;103377.84;;;10.08;100.00
42591;BME280;28218;53.342;-6.216;2023-02-11T01:01:09;103373.41;;;10.09;100.00
42591;BME280;28218;53.342;-6.216;2023-02-11T01:03:38;103380.25;;;10.11;100.00
42591;BME280;28218;53.342;-6.216;2023-02-11T01:06:08;103376.69;;;10.12;100.00
42591;BME280;28218;53.342;-6.216;2023-02-11T01:08:37;103375.44;;;10.18;100.00
42591;BME280;28218;53.342;-6.216;2023-02-11T01:11:11;103373.75;;;10.17;100.00
42591;BME280;28218;53.342;-6.216;2023-02-11T01:13:40;103368.50;;;10.17;100.00
42591;BME280;28218;53.342;-6.216;2023-02-11T01:16:10;103368.50;;;10.17;100.00
42591;BME280;28218;53.342;-6.216;2023-02-11T01:18:38;103362.47;;;10.15;100.00
42591;BME280;28218;53.342;-6.216;2023-02-11T01:21:07;103365.94;;;10.15;100.00
42591;BME280;28218;53.342;-6.216;2023-02-11T01:23:35;103367.66;;;10.16;100.00
42591;BME280;28218;53.342;-6.216;2023-02-11T01:26:04;103367.66;;;10.16;100.00
42591;BME280;28218;53.342;-6.216;2023-02-11T01:28:34;103371.31;;;10.14;100.00
42591;BME280;28218;53.342;-6.216;2023-02-11T01:31:03;103361.81;;;10.11;100.00
42591;BME280;28218;53.342;-6.216;2023-02-11T01:33:31;103357.59;;;10.09;100.00
42591;BME280;28218;53.342;-6.216;2023-02-11T01:36:00;103353.28;;;10.08;100.00
42591;BME280;28218;53.342;-6.216;2023-02-11T01:38:29;103348.75;;;10.10;100.00
42591;BME280;28218;53.342;-6.216;2023-02-11T01:41:00;103348.84;;;10.08;100.00
42591;BME280;28218;53.342;-6.216;2023-02-11T01:43:32;103337.66;;;10.05;100.00
42591;BME280;28218;53.342;-6.216;2023-02-11T01:46:13;103338.72;;;10.02;100.00
42591;BME280;28218;53.342;-6.216;2023-02-11T01:48:47;103333.47;;;10.02;100.00
42591;BME280;28218;53.342;-6.216;2023-02-11T01:51:20;103329.94;;;10.02;100.00
42591;BME280;28218;53.342;-6.216;2023-02-11T01:53:49;103330.91;;;10.01;100.00
42591;BME280;28218;53.342;-6.216;2023-02-11T01:56:41;103330.38;;;9.95;100.00
42591;BME280;28218;53.342;-6.216;2023-02-11T01:59:32;103327.91;;;9.92;100.00
42591;BME280;28218;53.342;-6.216;2023-02-11T02:02:07;103325.28;;;9.92;100.00
42591;BME280;28218;53.342;-6.216;2023-02-11T02:04:42;103325.81;;;9.85;100.00
42591;BME280;28218;53.342;-6.216;2023-02-11T02:07:17;103339.94;;;9.84;100.00
42591;BME280;28218;53.342;-6.216;2023-02-11T02:09:50;103325.88;;;9.83;100.00
42591;BME280;28218;53.342;-6.216;2023-02-11T02:12:23;103336.53;;;9.82;100.00
42591;BME280;28218;53.342;-6.216;2023-02-11T02:15:17;103329.41;;;9.84;100.00
42591;BME280;28218;53.342;-6.216;2023-02-11T02:17:47;103315.56;;;9.80;100.00
42591;BME280;28218;53.342;-6.216;2023-02-11T02:20:38;103309.66;;;9.77;100.00
42591;BME280;28218;53.342;-6.216;2023-02-11T02:23:25;103315.75;;;9.77;100.00
42591;BME280;28218;53.342;-6.216;2023-02-11T02:26:25;103313.97;;;9.78;100.00
42591;BME280;28218;53.342;-6.216;2023-02-11T02:29:21;103318.41;;;9.77;100.00
42591;BME280;28218;53.342;-6.216;2023-02-11T02:32:22;103320.72;;;9.82;100.00
42591;BME280;28218;53.342;-6.216;2023-02-11T02:34:57;103324.19;;;9.82;100.00
42591;BME280;28218;53.342;-6.216;2023-02-11T02:37:32;103326.84;;;9.82;100.00
42591;BME280;28218;53.342;-6.216;2023-02-11T02:40:08;103322.34;;;9.84;100.00
42591;BME280;28218;53.342;-6.216;2023-02-11T02:42:39;103326.66;;;9.85;100.00
42591;BME280;28218;53.342;-6.216;2023-02-11T02:45:08;103323.25;;;9.83;100.00
42591;BME280;28218;53.342;-6.216;2023-02-11T02:47:39;103321.56;;;9.82;100.00
42591;BME280;28218;53.342;-6.216;2023-02-11T02:50:08;103318.22;;;9.80;100.00
42591;BME280;28218;53.342;-6.216;2023-02-11T02:52:43;103317.44;;;9.78;100.00
42591;BME280;28218;53.342;-6.216;2023-02-11T02:55:30;103305.16;;;9.79;100.00
42591;BME280;28218;53.342;-6.216;2023-02-11T02:58:18;103303.25;;;9.81;100.00
42591;BME280;28218;53.342;-6.216;2023-02-11T03:00:59;103295.25;;;9.82;100.00
42591;BME280;28218;53.342;-6.216;2023-02-11T03:03:39;103292.53;;;9.84;100.00
42591;BME280;28218;53.342;-6.216;2023-02-11T03:06:13;103290.72;;;9.84;100.00
42591;BME280;28218;53.342;-6.216;2023-02-11T03:08:45;103296.63;;;9.88;100.00
42591;BME280;28218;53.342;-6.216;2023-02-11T03:11:17;103280.94;;;9.86;100.00
42591;BME280;28218;53.342;-6.216;2023-02-11T03:13:47;103285.25;;;9.87;100.00
42591;BME280;28218;53.342;-6.216;2023-02-11T03:16:19;103286.19;;;9.86;100.00
42591;BME280;28218;53.342;-6.216;2023-02-11T03:18:55;103290.50;;;9.87;100.00
42591;BME280;28218;53.342;-6.216;2023-02-11T03:21:25;103282.59;;;9.87;100.00
42591;BME280;28218;53.342;-6.216;2023-02-11T03:23:58;103284.31;;;9.88;100.00
42591;BME280;28218;53.342;-6.216;2023-02-11T03:26:29;103288.63;;;9.89;100.00
42591;BME280;28218;53.342;-6.216;2023-02-11T03:28:59;103284.22;;;9.90;100.00
42591;BME280;28218;53.342;-6.216;2023-02-11T03:31:33;103288.41;;;9.92;100.00
42591;BME280;28218;53.342;-6.216;2023-02-11T03:34:09;103287.69;;;9.90;100.00
42591;BME280;28218;53.342;-6.216;2023-02-11T03:36:43;103274.50;;;9.90;100.00
42591;BME280;28218;53.342;-6.216;2023-02-11T03:39:15;103281.47;;;9.91;100.00
42591;BME280;28218;53.342;-6.216;2023-02-11T03:41:45;103279.06;;;9.88;100.00
42591;BME280;28218;53.342;-6.216;2023-02-11T03:44:16;103273.78;;;9.88;100.00
42591;BME280;28218;53.342;-6.216;2023-02-11T03:46:48;103279.91;;;9.89;100.00
42591;BME280;28218;53.342;-6.216;2023-02-11T03:49:20;103277.34;;;9.87;100.00
42591;BME280;28218;53.342;-6.216;2023-02-11T03:51:51;103279.06;;;9.88;100.00
42591;BME280;28218;53.342;-6.216;2023-02-11T03:54:23;103277.25;;;9.89;100.00
42591;BME280;28218;53.342;-6.216;2023-02-11T03:56:57;103277.34;;;9.87;100.00
42591;BME280;28218;53.342;-6.216;2023-02-11T03:59:27;103281.59;;;9.90;100.00
42591;BME280;28218;53.342;-6.216;2023-02-11T04:01:55;103277.25;;;9.89;100.00
42591;BME280;28218;53.342;-6.216;2023-02-11T04:04:26;103287.88;;;9.87;100.00
42591;BME280;28218;53.342;-6.216;2023-02-11T04:06:54;103288.81;;;9.86;100.00
42591;BME280;28218;53.342;-6.216;2023-02-11T04:09:23;103290.50;;;9.87;100.00
42591;BME280;28218;53.342;-6.216;2023-02-11T04:11:51;103300.44;;;9.84;100.00
42591;BME280;28218;53.342;-6.216;2023-02-11T04:14:19;103305.59;;;9.85;100.00
42591;BME280;28218;53.342;-6.216;2023-02-11T04:16:48;103300.50;;;9.82;100.00
42591;BME280;28218;53.342;-6.216;2023-02-11T04:19:16;103307.44;;;9.83;100.00
42591;BME280;28218;53.342;-6.216;2023-02-11T04:21:46;103299.47;;;9.85;100.00
42591;BME280;28218;53.342;-6.216;2023-02-11T04:24:14;103302.19;;;9.83;100.00
42591;BME280;28218;53.342;-6.216;2023-02-11T04:26:42;103297.03;;;9.82;100.00
42591;BME280;28218;53.342;-6.216;2023-02-11T04:29:11;103300.31;;;9.85;100.00
42591;BME280;28218;53.342;-6.216;2023-02-11T04:31:39;103301.16;;;9.86;100.00
42591;BME280;28218;53.342;-6.216;2023-02-11T04:34:07;103302.00;;;9.86;100.00
42591;BME280;28218;53.342;-6.216;2023-02-11T04:36:37;103298.72;;;9.83;100.00
42591;BME280;28218;53.342;-6.216;2023-02-11T04:39:07;103301.88;;;9.88;100.00
42591;BME280;28218;53.342;-6.216;2023-02-11T04:41:35;103298.53;;;9.86;100.00
42591;BME280;28218;53.342;-6.216;2023-02-11T04:44:04;103297.69;;;9.85;100.00
42591;BME280;28218;53.342;-6.216;2023-02-11T04:46:32;103299.16;;;9.89;100.00
42591;BME280;28218;53.342;-6.216;2023-02-11T04:49:00;103300.66;;;9.93;100.00
42591;BME280;28218;53.342;-6.216;2023-02-11T04:51:29;103302.34;;;9.94;100.00
42591;BME280;28218;53.342;-6.216;2023-02-11T04:53:57;103311.19;;;9.93;100.00
42591;BME280;28218;53.342;-6.216;2023-02-11T04:56:27;103313.59;;;9.96;100.00
42591;BME280;28218;53.342;-6.216;2023-02-11T04:58:55;103304.88;;;9.96;100.00
42591;BME280;28218;53.342;-6.216;2023-02-11T05:01:23;103308.25;;;9.98;100.00
42591;BME280;28218;53.342;-6.216;2023-02-11T05:03:52;103308.16;;;9.99;100.00
42591;BME280;28218;53.342;-6.216;2023-02-11T05:06:20;103302.78;;;10.01;100.00
42591;BME280;28218;53.342;-6.216;2023-02-11T05:08:48;103307.13;;;10.02;100.00
42591;BME280;28218;53.342;-6.216;2023-02-11T05:11:19;103309.66;;;10.04;100.00
42591;BME280;28218;53.342;-6.216;2023-02-11T05:13:49;103314.06;;;10.03;100.00
42591;BME280;28218;53.342;-6.216;2023-02-11T05:16:17;103311.53;;;10.02;100.00
42591;BME280;28218;53.342;-6.216;2023-02-11T05:18:46;103320.19;;;10.04;100.00
42591;BME280;28218;53.342;-6.216;2023-02-11T05:21:18;103314.91;;;10.04;100.00
42591;BME280;28218;53.342;-6.216;2023-02-11T05:23:47;103315.03;;;10.02;100.00
42591;BME280;28218;53.342;-6.216;2023-02-11T05:26:15;103308.69;;;10.05;100.00
42591;BME280;28218;53.342;-6.216;2023-02-11T05:28:44;103313.97;;;10.05;100.00
42591;BME280;28218;53.342;-6.216;2023-02-11T05:31:14;103313.41;;;9.99;100.00
42591;BME280;28218;53.342;-6.216;2023-02-11T05:33:45;103308.16;;;9.99;100.00
42591;BME280;28218;53.342;-6.216;2023-02-11T05:36:13;103316.91;;;10.00;100.00
42591;BME280;28218;53.342;-6.216;2023-02-11T05:38:42;103321.88;;;10.05;100.00
42591;BME280;28218;53.342;-6.216;2023-02-11T05:41:10;103324.50;;;10.05;100.00
42591;BME280;28218;53.342;-6.216;2023-02-11T05:43:39;103324.50;;;10.05;100.00
42591;BME280;28218;53.342;-6.216;2023-02-11T05:46:07;103317.44;;;10.05;100.00
42591;BME280;28218;53.342;-6.216;2023-02-11T05:48:36;103320.19;;;10.04;100.00
42591;BME280;28218;53.342;-6.216;2023-02-11T05:51:05;103333.47;;;10.02;100.00
42591;BME280;28218;53.342;-6.216;2023-02-11T05:53:33;103325.44;;;10.04;100.00
42591;BME280;28218;53.342;-6.216;2023-02-11T05:56:01;103321.88;;;10.05;100.00
42591;BME280;28218;53.342;-6.216;2023-02-11T05:58:31;103325.44;;;10.04;100.00
42591;BME280;28218;53.342;-6.216;2023-02-11T06:00:59;103323.53;;;10.06;100.00
42591;BME280;28218;53.342;-6.216;2023-02-11T06:03:27;103324.38;;;10.06;100.00
42591;BME280;28218;53.342;-6.216;2023-02-11T06:05:57;103332.28;;;10.06;100.00
42591;BME280;28218;53.342;-6.216;2023-02-11T06:08:25;103335.03;;;10.05;100.00
42591;BME280;28218;53.342;-6.216;2023-02-11T06:10:53;103331.44;;;10.06;100.00
42591;BME280;28218;53.342;-6.216;2023-02-11T06:13:21;103333.47;;;10.02;100.00
42591;BME280;28218;53.342;-6.216;2023-02-11T06:15:55;103328.09;;;10.04;100.00
42591;BME280;28218;53.342;-6.216;2023-02-11T06:18:24;103326.28;;;10.04;100.00
42591;BME280;28218;53.342;-6.216;2023-02-11T06:20:52;103322.06;;;10.02;100.00
42591;BME280;28218;53.342;-6.216;2023-02-11T06:23:22;103324.69;;;10.02;100.00
42591;BME280;28218;53.342;-6.216;2023-02-11T06:26:00;103317.75;;;10.01;100.00
42591;BME280;28218;53.342;-6.216;2023-02-11T06:28:28;103327.44;;;10.00;100.00
42591;BME280;28218;53.342;-6.216;2023-02-11T06:31:03;103327.53;;;9.98;100.00
42591;BME280;28218;53.342;-6.216;2023-02-11T06:33:32;103334.59;;;9.98;100.00
42591;BME280;28218;53.342;-6.216;2023-02-11T06:36:01;103333.66;;;9.99;100.00
42591;BME280;28218;53.342;-6.216;2023-02-11T06:38:30;103333.75;;;9.97;100.00
42591;BME280;28218;53.342;-6.216;2023-02-11T06:40:59;103330.25;;;9.97;100.00
42591;BME280;28218;53.342;-6.216;2023-02-11T06:43:27;103333.66;;;9.99;100.00
42591;BME280;28218;53.342;-6.216;2023-02-11T06:45:55;103328.28;;;10.01;100.00
42591;BME280;28218;53.342;-6.216;2023-02-11T06:48:23;103332.59;;;10.02;100.00
42591;BME280;28218;53.342;-6.216;2023-02-11T06:50:52;103335.97;;;10.04;100.00
42591;BME280;28218;53.342;-6.216;2023-02-11T06:53:20;103339.66;;;10.01;100.00
42591;BME280;28218;53.342;-6.216;2023-02-11T06:55:49;103337.84;;;10.02;100.00
42591;BME280;28218;53.342;-6.216;2023-02-11T06:58:18;103338.09;;;9.98;100.00
42591;BME280;28218;53.342;-6.216;2023-02-11T07:00:46;103332.81;;;9.98;100.00
42591;BME280;28218;53.342;-6.216;2023-02-11T07:03:14;103329.22;;;9.99;100.00
42591;BME280;28218;53.342;-6.216;2023-02-11T07:05:43;103330.91;;;10.01;100.00
42591;BME280;28218;53.342;-6.216;2023-02-11T07:08:11;103337.13;;;9.99;100.00
42591;BME280;28218;53.342;-6.216;2023-02-11T07:10:39;103337.25;;;9.98;100.00
42591;BME280;28218;53.342;-6.216;2023-02-11T07:13:08;103346.06;;;9.97;100.00
42591;BME280;28218;53.342;-6.216;2023-02-11T07:15:37;103345.22;;;9.96;100.00
42591;BME280;28218;53.342;-6.216;2023-02-11T07:18:05;103335.53;;;9.97;100.00
42591;BME280;28218;53.342;-6.216;2023-02-11T07:20:33;103341.75;;;9.96;100.00
42591;BME280;28218;53.342;-6.216;2023-02-11T07:23:01;103337.25;;;9.98;100.00
42591;BME280;28218;53.342;-6.216;2023-02-11T07:25:29;103340.72;;;9.98;100.00
42591;BME280;28218;53.342;-6.216;2023-02-11T07:27:57;103345.22;;;9.96;100.00
42591;BME280;28218;53.342;-6.216;2023-02-11T07:30:27;103347.84;;;9.96;100.00
42591;BME280;28218;53.342;-6.216;2023-02-11T07:32:55;103347.78;;;9.98;100.00
42591;BME280;28218;53.342;-6.216;2023-02-11T07:35:24;103352.19;;;9.97;100.00
42591;BME280;28218;53.342;-6.216;2023-02-11T07:37:52;103355.56;;;9.99;100.00
42591;BME280;28218;53.342;-6.216;2023-02-11T07:40:20;103354.72;;;9.99;100.00
42591;BME280;28218;53.342;-6.216;2023-02-11T07:42:48;103368.63;;;10.01;100.00
42591;BME280;28218;53.342;-6.216;2023-02-11T07:45:17;103362.44;;;10.02;100.00
42591;BME280;28218;53.342;-6.216;2023-02-11T07:47:46;103371.06;;;10.04;100.00
42591;BME280;28218;53.342;-6.216;2023-02-11T07:50:15;103367.50;;;10.05;100.00
42591;BME280;28218;53.342;-6.216;2023-02-11T07:52:44;103372.97;;;10.02;100.00
42591;BME280;28218;53.342;-6.216;2023-02-11T07:55:12;103378.88;;;10.06;100.00
42591;BME280;28218;53.342;-6.216;2023-02-11T07:57:40;103379.72;;;10.06;100.00
42591;BME280;28218;53.342;-6.216;2023-02-11T08:00:10;103382.34;;;10.06;100.00
42591;BME280;28218;53.342;-6.216;2023-02-11T08:02:38;103386.69;;;10.07;100.00
42591;BME280;28218;53.342;-6.216;2023-02-11T08:05:08;103382.16;;;10.09;100.00
42591;BME280;28218;53.342;-6.216;2023-02-11T08:07:36;103381.31;;;10.09;100.00
42591;BME280;28218;53.342;-6.216;2023-02-11T08:10:05;103369.81;;;10.10;100.00
42591;BME280;28218;53.342;-6.216;2023-02-11T08:12:33;103384.69;;;10.11;100.00
42591;BME280;28218;53.342;-6.216;2023-02-11T08:15:01;103378.38;;;10.13;100.00
42591;BME280;28218;53.342;-6.216;2023-02-11T08:17:30;103387.13;;;10.14;100.00
42591;BME280;28218;53.342;-6.216;2023-02-11T08:19:58;103393.13;;;10.16;100.00
42591;BME280;28218;53.342;-6.216;2023-02-11T08:22:30;103397.56;;;10.15;100.00
42591;BME280;28218;53.342;-6.216;2023-02-11T08:24:58;103400.94;;;10.17;100.00
42591;BME280;28218;53.342;-6.216;2023-02-11T08:27:27;103396.41;;;10.19;100.00
42591;BME280;28218;53.342;-6.216;2023-02-11T08:29:55;103402.53;;;10.20;100.00
42591;BME280;28218;53.342;-6.216;2023-02-11T08:32:25;103395.38;;;10.22;100.00
42591;BME280;28218;53.342;-6.216;2023-02-11T08:34:53;103396.13;;;10.24;100.00
42591;BME280;28218;53.342;-6.216;2023-02-11T08:37:22;103402.34;;;10.23;100.00
42591;BME280;28218;53.342;-6.216;2023-02-11T08:39:51;103414.47;;;10.26;100.00
42591;BME280;28218;53.342;-6.216;2023-02-11T08:42:20;103424.00;;;10.28;100.00
42591;BME280;28218;53.342;-6.216;2023-02-11T08:44:48;103423.03;;;10.29;100.00
42591;BME280;28218;53.342;-6.216;2023-02-11T08:47:16;103414.19;;;10.30;100.00
42591;BME280;28218;53.342;-6.216;2023-02-11T08:49:44;103420.94;;;10.34;100.00
42591;BME280;28218;53.342;-6.216;2023-02-11T08:52:13;103423.56;;;10.34;100.00
42591;BME280;28218;53.342;-6.216;2023-02-11T08:54:41;103431.28;;;10.37;100.00
42591;BME280;28218;53.342;-6.216;2023-02-11T08:57:11;103445.19;;;10.39;100.00
42591;BME280;28218;53.342;-6.216;2023-02-11T08:59:39;103448.72;;;10.40;100.00
42591;BME280;28218;53.342;-6.216;2023-02-11T09:02:10;103452.06;;;10.42;100.00
42591;BME280;28218;53.342;-6.216;2023-02-11T09:04:41;103451.88;;;10.45;100.00
42591;BME280;28218;53.342;-6.216;2023-02-11T09:07:09;103442.25;;;10.44;100.00
42591;BME280;28218;53.342;-6.216;2023-02-11T09:09:38;103450.81;;;10.47;100.00
42591;BME280;28218;53.342;-6.216;2023-02-11T09:12:06;103446.50;;;10.46;100.00
42591;BME280;28218;53.342;-6.216;2023-02-11T09:14:36;103460.41;;;10.48;100.00
42591;BME280;28218;53.342;-6.216;2023-02-11T09:17:04;103464.97;;;10.46;100.00
42591;BME280;28218;53.342;-6.216;2023-02-11T09:19:32;103471.91;;;10.47;100.00
42591;BME280;28218;53.342;-6.216;2023-02-11T09:22:03;103474.56;;;10.47;100.00
42591;BME280;28218;53.342;-6.216;2023-02-11T09:24:32;103473.59;;;10.48;100.00
42591;BME280;28218;53.342;-6.216;2023-02-11T09:27:00;103488.38;;;10.51;100.00
42591;BME280;28218;53.342;-6.216;2023-02-11T09:29:28;103479.53;;;10.52;100.00
42591;BME280;28218;53.342;-6.216;2023-02-11T09:31:58;103469.63;;;10.56;100.00
42591;BME280;28218;53.342;-6.216;2023-02-11T09:34:26;103476.59;;;10.57;100.00
42591;BME280;28218;53.342;-6.216;2023-02-11T09:36:54;103483.53;;;10.58;100.00
42591;BME280;28218;53.342;-6.216;2023-02-11T09:39:22;103472.81;;;10.61;100.00
42591;BME280;28218;53.342;-6.216;2023-02-11T09:42:19;103481.44;;;10.63;100.00
42591;BME280;28218;53.342;-6.216;2023-02-11T09:44:56;103484.84;;;10.65;100.00
42591;BME280;28218;53.342;-6.216;2023-02-11T09:47:31;103487.47;;;10.65;100.00
42591;BME280;28218;53.342;-6.216;2023-02-11T09:50:02;103482.84;;;10.68;100.00
42591;BME280;28218;53.342;-6.216;2023-02-11T09:52:36;103498.69;;;10.68;100.00
42591;BME280;28218;53.342;-6.216;2023-02-11T09:55:16;103505.53;;;10.71;100.00
42591;BME280;28218;53.342;-6.216;2023-02-11T09:57:45;103504.56;;;10.72;100.00
42591;BME280;28218;53.342;-6.216;2023-02-11T10:00:20;103510.63;;;10.74;100.00
42591;BME280;28218;53.342;-6.216;2023-02-11T10:03:03;103511.34;;;10.76;100.00
42591;BME280;28218;53.342;-6.216;2023-02-11T10:05:46;103517.28;;;10.80;100.00
42591;BME280;28218;53.342;-6.216;2023-02-11T10:08:25;103519.06;;;10.79;100.00
42591;BME280;28218;53.342;-6.216;2023-02-11T10:11:00;103518.00;;;10.82;100.00
42591;BME280;28218;53.342;-6.216;2023-02-11T10:13:48;103518.75;;;10.84;100.00
42591;BME280;28218;53.342;-6.216;2023-02-11T10:16:35;103502.72;;;10.87;100.00
42591;BME280;28218;53.342;-6.216;2023-02-11T10:19:36;103508.84;;;10.87;100.00
42591;BME280;28218;53.342;-6.216;2023-02-11T10:22:15;103507.50;;;10.94;100.00
42591;BME280;28218;53.342;-6.216;2023-02-11T10:24:50;103505.81;;;10.93;100.00
42591;BME280;28218;53.342;-6.216;2023-02-11T10:27:25;103524.06;;;10.96;100.00
42591;BME280;28218;53.342;-6.216;2023-02-11T10:29:58;103508.88;;;11.00;100.00
42591;BME280;28218;53.342;-6.216;2023-02-11T10:32:34;103521.13;;;11.01;100.00
42591;BME280;28218;53.342;-6.216;2023-02-11T10:35:13;103514.97;;;11.00;100.00
42591;BME280;28218;53.342;-6.216;2023-02-11T10:37:43;103515.63;;;11.04;100.00
42591;BME280;28218;53.342;-6.216;2023-02-11T10:40:13;103523.34;;;11.07;100.00
42591;BME280;28218;53.342;-6.216;2023-02-11T10:42:45;103526.72;;;11.09;100.00
42591;BME280;28218;53.342;-6.216;2023-02-11T10:45:20;103530.97;;;11.12;100.00
42591;BME280;28218;53.342;-6.216;2023-02-11T10:47:49;103525.38;;;11.16;100.00
42591;BME280;28218;53.342;-6.216;2023-02-11T10:50:22;103534.84;;;11.19;100.00
42591;BME280;28218;53.342;-6.216;2023-02-11T10:52:50;103532.34;;;11.17;100.00
42591;BME280;28218;53.342;-6.216;2023-02-11T10:55:21;103536.34;;;11.23;100.00
42591;BME280;28218;53.342;-6.216;2023-02-11T10:57:57;103537.84;;;11.27;100.00
42591;BME280;28218;53.342;-6.216;2023-02-11T11:00:34;103541.13;;;11.31;100.00
42591;BME280;28218;53.342;-6.216;2023-02-11T11:03:16;103530.56;;;11.31;100.00
42591;BME280;28218;53.342;-6.216;2023-02-11T11:05:49;103529.28;;;11.36;100.00
42591;BME280;28218;53.342;-6.216;2023-02-11T11:08:18;103523.81;;;11.39;100.00
42591;BME280;28218;53.342;-6.216;2023-02-11T11:10:48;103530.78;;;11.40;100.00
42591;BME280;28218;53.342;-6.216;2023-02-11T11:13:31;103536.78;;;11.42;100.00
42591;BME280;28218;53.342;-6.216;2023-02-11T11:16:16;103539.34;;;11.44;100.00
42591;BME280;28218;53.342;-6.216;2023-02-11T11:18:46;103539.22;;;11.45;100.00
42591;BME280;28218;53.342;-6.216;2023-02-11T11:21:19;103538.06;;;11.49;100.00
42591;BME280;28218;53.342;-6.216;2023-02-11T11:23:52;103541.75;;;11.47;100.00
42591;BME280;28218;53.342;-6.216;2023-02-11T11:26:22;103545.22;;;11.47;100.00
42591;BME280;28218;53.342;-6.216;2023-02-11T11:28:59;103545.16;;;11.49;100.00
42591;BME280;28218;53.342;-6.216;2023-02-11T11:31:32;103549.34;;;11.51;100.00
42591;BME280;28218;53.342;-6.216;2023-02-11T11:34:21;103540.41;;;11.54;100.00
42591;BME280;28218;53.342;-6.216;2023-02-11T11:36:51;103538.28;;;11.59;100.00
42591;BME280;28218;53.342;-6.216;2023-02-11T11:39:23;103542.16;;;11.66;100.00
42591;BME280;28218;53.342;-6.216;2023-02-11T11:41:54;103552.41;;;11.71;100.00
42591;BME280;28218;53.342;-6.216;2023-02-11T11:44:27;103550.63;;;11.71;100.00
42591;BME280;28218;53.342;-6.216;2023-02-11T11:47:15;103545.97;;;11.75;100.00
42591;BME280;28218;53.342;-6.216;2023-02-11T11:49:49;103549.91;;;11.82;100.00
42591;BME280;28218;53.342;-6.216;2023-02-11T11:52:32;103547.03;;;11.85;100.00
42591;BME280;28218;53.342;-6.216;2023-02-11T11:55:08;103548.53;;;11.89;100.00
42591;BME280;28218;53.342;-6.216;2023-02-11T11:57:39;103552.88;;;11.90;100.00
42591;BME280;28218;53.342;-6.216;2023-02-11T12:00:17;103544.50;;;11.96;100.00
42591;BME280;28218;53.342;-6.216;2023-02-11T12:03:13;103542.38;;;12.01;100.00
42591;BME280;28218;53.342;-6.216;2023-02-11T12:05:57;103540.47;;;12.03;100.00
42591;BME280;28218;53.342;-6.216;2023-02-11T12:08:36;103532.13;;;12.10;100.00
42591;BME280;28218;53.342;-6.216;2023-02-11T12:11:14;103532.84;;;12.12;100.00
42591;BME280;28218;53.342;-6.216;2023-02-11T12:13:56;103535.16;;;12.16;100.00
42591;BME280;28218;53.342;-6.216;2023-02-11T12:16:35;103538.44;;;12.20;100.00
42591;BME280;28218;53.342;-6.216;2023-02-11T12:19:19;103534.63;;;12.24;100.00
42591;BME280;28218;53.342;-6.216;2023-02-11T12:21:57;103526.56;;;12.25;100.00
42591;BME280;28218;53.342;-6.216;2023-02-11T12:24:37;103528.88;;;12.30;100.00
42591;BME280;28218;53.342;-6.216;2023-02-11T12:27:13;103529.50;;;12.34;100.00
42591;BME280;28218;53.342;-6.216;2023-02-11T12:29:55;103539.34;;;12.32;100.00
42591;BME280;28218;53.342;-6.216;2023-02-11T12:32:32;103538.75;;;12.28;100.00
42591;BME280;28218;53.342;-6.216;2023-02-11T12:35:21;103536.44;;;12.23;100.00
42591;BME280;28218;53.342;-6.216;2023-02-11T12:41:21;103546.13;;;12.23;100.00
42591;BME280;28218;53.342;-6.216;2023-02-11T12:44:12;103548.03;;;12.21;100.00
42591;BME280;28218;53.342;-6.216;2023-02-11T12:46:48;103544.56;;;12.20;100.00
42591;BME280;28218;53.342;-6.216;2023-02-11T12:49:32;103549.97;;;12.19;100.00
42591;BME280;28218;53.342;-6.216;2023-02-11T12:52:15;103553.53;;;12.18;100.00
42591;BME280;28218;53.342;-6.216;2023-02-11T12:54:54;103551.22;;;12.13;100.00
42591;BME280;28218;53.342;-6.216;2023-02-11T12:57:27;103545.72;;;12.16;100.00
42591;BME280;28218;53.342;-6.216;2023-02-11T12:59:59;103554.00;;;12.12;100.00
42591;BME280;28218;53.342;-6.216;2023-02-11T13:02:38;103543.53;;;12.10;100.00